.
WxDataArchive / Data Records for 2010-06-05
2010-06-04 June 2010 2010-06-06

Data Records for Saturday, 05 June 2010

Time	Temp	Chill	HIndex	Humid	Dewpt	 Wind 	HiWind	WindDir	Rain 	Barom 
-----	----	-----	------	-----	-----	------	------	-------	-----	----- 
00:00	68.8	68.8	68.8	88	65.1	0	0	---	0.00	29.720 
00:05	68.8	68.8	68.8	88	65.1	0	0	---	0.00	29.720 
00:10	68.8	68.8	68.8	88	65.1	0	1	270	0.00	29.720 
00:15	68.9	68.9	68.9	88	65.2	0	1	270	0.00	29.720 
00:20	69.1	69.1	69.1	88	65.4	0	0	---	0.00	29.720 
00:25	69.1	69.1	69.1	88	65.4	0	0	---	0.00	29.720 
00:30	69.1	69.1	69.1	88	65.4	0	2	270	0.00	29.715 
00:35	69.3	69.3	69.3	88	65.6	0	1	270	0.00	29.715 
00:40	69.3	69.3	69.3	88	65.6	0	1	270	0.00	29.715 
00:45	69.4	69.4	69.4	88	65.7	0	0	---	0.00	29.711 
00:50	69.4	69.4	69.4	88	65.7	0	0	---	0.00	29.711 
00:55	69.6	69.6	69.6	88	65.9	0	0	---	0.02	29.711 
01:00	69.8	69.8	69.8	89	66.4	0	1	270	0.01	29.710 
01:05	69.8	69.8	69.8	89	66.4	0	0	---	0.00	29.710 
01:10	69.6	69.6	69.6	90	66.5	0	1	270	0.00	29.710 
01:15	69.4	69.4	69.4	90	66.3	0	0	---	0.00	29.705 
01:20	69.1	69.1	69.1	90	66.0	0	0	---	0.00	29.705 
01:25	69.1	69.1	69.1	91	66.4	0	0	---	0.00	29.705 
01:30	68.9	68.9	68.9	91	66.2	0	0	---	0.00	29.707 
01:35	68.9	68.9	68.9	92	66.5	0	1	270	0.00	29.707 
01:40	68.9	68.9	68.9	92	66.5	0	1	270	0.01	29.707 
01:45	68.9	68.9	68.9	92	66.5	0	1	270	0.00	29.707 
01:50	68.8	68.8	68.8	92	66.4	0	1	270	0.00	29.707 
01:55	68.6	68.6	68.6	92	66.2	0	1	270	0.00	29.707 
02:00	68.6	68.6	68.6	92	66.2	0	3	270	0.00	29.698 
02:05	68.4	68.4	68.4	92	66.0	0	1	270	0.00	29.698 
02:10	68.4	68.4	68.4	92	66.0	0	1	270	0.00	29.698 
02:15	68.4	68.4	68.4	92	66.0	0	1	270	0.00	29.691 
02:20	68.4	68.4	68.4	92	66.0	0	1	270	0.00	29.691 
02:25	68.4	68.4	68.4	92	66.0	0	1	270	0.00	29.691 
02:30	68.3	68.3	68.3	92	65.9	0	0	---	0.00	29.691 
02:35	68.3	68.3	68.3	92	65.9	0	1	270	0.00	29.691 
02:40	68.3	68.3	68.3	93	66.2	0	0	---	0.00	29.691 
02:45	68.3	68.3	68.3	93	66.2	0	0	---	0.00	29.692 
02:50	68.3	68.3	68.3	93	66.2	0	0	---	0.00	29.692 
02:55	68.3	68.3	68.3	93	66.2	0	0	---	0.00	29.692 
03:00	68.3	68.3	68.3	93	66.2	0	0	---	0.00	29.691 
03:05	68.3	68.3	68.3	93	66.2	0	0	---	0.00	29.691 
03:10	68.3	68.3	68.3	93	66.2	0	0	---	0.00	29.691 
03:15	68.3	68.3	68.3	93	66.2	0	0	---	0.00	29.691 
03:20	68.3	68.3	68.3	93	66.2	0	0	---	0.00	29.691 
03:25	68.3	68.3	68.3	94	66.5	0	0	---	0.00	29.691 
03:30	68.3	68.3	68.3	94	66.5	0	0	---	0.00	29.690 
03:35	68.3	68.3	68.3	94	66.5	0	0	---	0.00	29.690 
03:40	68.4	68.4	68.4	94	66.6	0	1	270	0.00	29.690 
03:45	68.8	68.8	68.8	94	67.0	0	1	270	0.00	29.690 
03:50	68.8	68.8	68.8	94	67.0	0	1	270	0.00	29.690 
03:55	68.9	68.9	68.9	94	67.1	0	1	270	0.00	29.690 
04:00	68.9	68.9	68.9	94	67.1	0	0	---	0.00	29.685 
04:05	68.8	68.8	68.8	94	67.0	0	0	---	0.00	29.685 
04:10	68.9	68.9	68.9	94	67.1	0	1	270	0.00	29.685 
04:15	68.9	68.9	68.9	94	67.1	0	1	270	0.00	29.678 
04:20	68.9	68.9	68.9	94	67.1	0	1	270	0.00	29.678 
04:25	69.1	69.1	69.1	94	67.3	0	1	270	0.00	29.678 
04:30	69.1	69.1	69.1	94	67.3	0	1	270	0.00	29.676 
04:35	69.3	69.3	69.3	94	67.5	0	1	270	0.00	29.676 
04:40	69.1	69.1	69.1	93	67.0	0	2	270	0.00	29.676 
04:45	68.9	68.9	68.9	93	66.8	0	1	270	0.00	29.675 
04:50	68.8	68.8	68.8	92	66.4	0	1	270	0.00	29.675 
04:55	68.6	68.6	68.6	92	66.2	0	1	270	0.00	29.675 
05:00	68.8	68.8	68.8	92	66.4	0	1	270	0.00	29.685 
05:05	68.8	68.8	68.8	92	66.4	0	1	270	0.00	29.685 
05:10	68.8	68.8	68.8	91	66.1	0	0	---	0.00	29.685 
05:15	68.8	68.8	68.8	92	66.4	0	0	---	0.00	29.685 
05:20	68.9	68.9	68.9	92	66.5	0	0	---	0.00	29.685 
05:25	68.9	68.9	68.9	92	66.5	0	0	---	0.00	29.685 
05:30	68.9	68.9	68.9	92	66.5	0	1	270	0.00	29.690 
05:35	69.1	69.1	69.1	92	66.7	0	1	270	0.00	29.690 
05:40	69.1	69.1	69.1	92	66.7	0	0	---	0.00	29.690 
05:45	69.3	69.3	69.3	92	66.9	0	0	---	0.00	29.691 
05:50	69.3	69.3	69.3	92	66.9	0	0	---	0.00	29.691 
05:55	69.4	69.4	69.4	93	67.3	0	0	---	0.00	29.691 
06:00	69.3	69.3	69.3	93	67.2	0	0	---	0.00	29.690 
06:05	69.3	69.3	69.3	93	67.2	0	0	---	0.00	29.690 
06:10	69.3	69.3	69.3	93	67.2	0	0	---	0.00	29.690 
06:15	69.3	69.3	69.3	93	67.2	0	0	---	0.00	29.694 
06:20	69.3	69.3	69.3	93	67.2	0	1	270	0.00	29.694 
06:25	69.4	69.4	69.4	93	67.3	0	1	270	0.00	29.694 
06:30	69.6	69.6	69.6	93	67.5	0	1	270	0.00	29.709 
06:35	69.6	69.6	69.6	93	67.5	0	0	---	0.00	29.709 
06:40	69.8	69.8	69.8	94	68.0	0	1	270	0.00	29.709 
06:45	69.9	69.9	69.9	94	68.1	0	1	270	0.00	29.712 
06:50	70.1	70.1	70.1	93	68.0	0	1	270	0.00	29.712 
06:55	70.1	70.1	70.1	93	68.0	0	1	270	0.00	29.712 
07:00	70.3	70.3	70.3	93	68.2	0	1	270	0.00	29.719 
07:05	70.4	70.4	70.4	93	68.3	0	1	270	0.00	29.719 
07:10	70.6	70.6	70.6	93	68.5	0	1	270	0.00	29.719 
07:15	70.8	70.8	70.8	92	68.4	0	1	270	0.00	29.725 
07:20	70.9	70.9	70.9	92	68.5	0	1	270	0.00	29.725 
07:25	70.9	70.9	70.9	92	68.5	0	0	---	0.00	29.725 
07:30	70.9	70.9	70.9	92	68.5	0	1	270	0.00	29.736 
07:35	71.1	71.1	71.1	92	68.7	0	1	270	0.00	29.736 
07:40	71.1	71.1	71.1	92	68.7	0	1	270	0.00	29.736 
07:45	71.1	71.1	71.1	92	68.7	0	1	270	0.00	29.735 
07:50	71.3	71.3	71.3	92	68.8	0	2	270	0.00	29.735 
07:55	71.5	71.5	71.5	92	69.0	0	2	270	0.00	29.735 
08:00	71.5	71.5	71.5	91	68.7	0	1	270	0.00	29.728 
08:05	71.6	71.6	71.6	91	68.8	0	0	---	0.00	29.728 
08:10	71.8	71.8	71.8	91	69.0	0	1	270	0.00	29.728 
08:15	72.0	72.0	72.0	91	69.2	0	1	270	0.00	29.731 
08:20	72.1	72.1	72.1	91	69.3	0	1	270	0.00	29.731 
08:25	72.7	72.7	72.7	90	69.6	0	1	270	0.00	29.731 
08:30	73.2	73.2	73.2	89	69.8	0	2	270	0.00	29.728 
08:35	73.3	73.3	73.3	88	69.5	0	2	270	0.00	29.728 
08:40	73.3	73.3	73.3	87	69.2	0	1	270	0.00	29.728 
08:45	73.5	73.5	73.5	87	69.4	0	1	270	0.00	29.727 
08:50	73.5	73.5	73.5	87	69.4	0	0	---	0.00	29.727 
08:55	73.5	73.5	73.5	86	69.0	0	0	---	0.00	29.727 
09:00	73.7	73.7	73.7	86	69.2	0	1	270	0.00	29.727 
09:05	73.7	73.7	73.7	85	68.9	0	1	270	0.00	29.727 
09:10	73.9	73.9	73.9	84	68.7	0	1	270	0.00	29.727 
09:15	74.0	74.0	74.0	84	68.8	0	1	270	0.00	29.738 
09:20	74.0	74.0	74.0	84	68.8	0	1	270	0.00	29.738 
09:25	74.4	74.4	74.4	83	68.9	0	1	270	0.00	29.738 
09:30	74.6	74.6	74.6	83	69.1	0	1	270	0.00	29.742 
09:35	74.4	74.4	74.4	82	68.5	0	1	270	0.00	29.742 
09:40	74.4	74.4	74.4	82	68.5	0	1	270	0.00	29.742 
09:45	74.0	74.0	74.0	81	67.8	0	1	270	0.00	29.755 
09:50	74.0	74.0	74.0	82	68.1	0	2	270	0.00	29.755 
09:55	74.0	74.0	74.0	82	68.1	0	1	270	0.00	29.755 
10:00	74.0	74.0	74.0	83	68.5	0	1	270	0.00	29.757 
10:05	73.9	73.9	73.9	83	68.4	0	1	270	0.00	29.757 
10:10	73.9	73.9	73.9	82	68.0	0	1	270	0.00	29.757 
10:15	74.0	74.0	74.0	83	68.5	0	1	270	0.00	29.757 
10:20	74.2	74.2	74.2	82	68.3	0	1	270	0.00	29.757 
10:25	74.4	74.4	74.4	82	68.5	0	1	270	0.00	29.757 
10:30	74.6	74.6	74.6	81	68.4	0	0	---	0.00	29.754 
10:35	74.9	74.9	74.9	81	68.7	0	1	270	0.00	29.754 
10:40	75.1	75.1	75.6	81	68.9	0	1	270	0.00	29.754 
10:45	75.3	75.3	75.9	81	69.1	0	0	---	0.00	29.750 
10:50	75.6	75.6	76.3	81	69.3	0	1	270	0.00	29.750 
10:55	75.8	75.8	76.7	80	69.2	0	1	270	0.00	29.750 
11:00	75.8	75.8	76.8	79	68.8	0	2	270	0.00	29.748 
11:05	76.0	76.0	77.1	79	69.0	0	1	270	0.00	29.748 
11:10	76.0	76.0	77.0	80	69.4	0	1	270	0.00	29.748 
11:15	76.1	76.1	77.3	78	68.7	0	2	270	0.00	29.757 
11:20	76.3	76.3	77.6	78	68.9	0	1	270	0.00	29.757 
11:25	76.1	76.1	77.2	79	69.1	0	2	270	0.00	29.757 
11:30	75.8	75.8	76.6	81	69.5	0	2	270	0.01	29.761 
11:35	75.1	75.1	75.3	83	69.6	0	2	270	0.00	29.761 
11:40	74.4	74.4	74.4	84	69.2	0	2	270	0.00	29.761 
11:45	74.0	74.0	74.0	85	69.2	0	2	270	0.00	29.766 
11:50	73.7	73.7	73.7	86	69.2	0	1	270	0.01	29.766 
11:55	73.5	73.5	73.5	87	69.4	0	1	270	0.02	29.766 
12:00	73.2	73.2	73.2	88	69.4	0	1	270	0.02	29.766 
12:05	73.0	73.0	73.0	89	69.6	0	0	---	0.00	29.766 
12:10	72.8	72.8	72.8	90	69.7	0	1	158	0.00	29.766 
12:15	72.8	72.8	72.8	90	69.7	0	1	158	0.00	29.764 
12:20	72.8	72.8	72.8	91	70.0	0	1	158	0.00	29.764 
12:25	72.8	72.8	72.8	91	70.0	0	1	158	0.00	29.764 
12:30	72.7	72.7	72.7	91	69.9	0	0	---	0.00	29.768 
12:35	72.7	72.7	72.7	91	69.9	0	1	158	0.00	29.768 
12:40	72.5	72.5	72.5	91	69.7	0	1	158	0.00	29.768 
12:45	72.3	72.3	72.3	91	69.5	0	1	158	0.02	29.778 
12:50	72.1	72.1	72.1	92	69.6	0	1	158	0.01	29.778 
12:55	72.0	72.0	72.0	92	69.5	0	1	158	0.00	29.778 
13:00	72.0	72.0	72.0	92	69.5	0	0	---	0.00	29.777 
13:05	72.0	72.0	72.0	92	69.5	0	1	158	0.00	29.777 
13:10	72.3	72.3	72.3	93	70.2	0	1	158	0.00	29.777 
13:15	72.7	72.7	72.7	93	70.6	0	1	158	0.00	29.771 
13:20	73.2	73.2	73.2	93	71.0	0	1	158	0.00	29.771 
13:25	73.3	73.3	73.3	93	71.1	0	1	158	0.00	29.771 
13:30	73.2	73.2	73.2	92	70.7	0	1	158	0.00	29.772 
13:35	72.7	72.7	72.7	91	69.9	0	1	158	0.00	29.772 
13:40	72.7	72.7	72.7	92	70.2	0	0	---	0.00	29.772 
13:45	73.0	73.0	73.0	92	70.5	0	0	---	0.00	29.755 
13:50	73.2	73.2	73.2	92	70.7	0	0	---	0.00	29.755 
13:55	73.0	73.0	73.0	91	70.2	0	1	158	0.00	29.755 
14:00	73.0	73.0	73.0	91	70.2	0	1	158	0.01	29.747 
14:05	73.0	73.0	73.0	91	70.2	0	0	---	0.00	29.747 
14:10	73.2	73.2	73.2	91	70.4	0	0	---	0.00	29.747 
14:15	73.3	73.3	73.3	92	70.8	0	0	---	0.00	29.747 
14:20	73.5	73.5	73.5	91	70.7	0	0	---	0.00	29.747 
14:25	73.7	73.7	73.7	91	70.9	0	0	---	0.00	29.747 
14:30	73.5	73.5	73.5	91	70.7	0	0	---	0.00	29.742 
14:35	73.7	73.7	73.7	92	71.2	0	1	158	0.00	29.742 
14:40	74.0	74.0	74.0	92	71.5	0	0	---	0.00	29.742 
14:45	74.2	74.2	74.2	92	71.7	0	1	158	0.00	29.741 
14:50	74.0	74.0	74.0	91	71.2	0	1	158	0.00	29.741 
14:55	73.9	73.9	73.9	91	71.1	0	1	158	0.00	29.741 
15:00	73.9	73.9	73.9	91	71.1	0	1	158	0.00	29.734 
15:05	74.0	74.0	74.0	91	71.2	0	0	---	0.00	29.734 
15:10	74.6	74.6	74.6	91	71.8	0	1	158	0.00	29.734 
15:15	74.9	74.9	74.9	91	72.1	0	1	158	0.00	29.729 
15:20	75.4	75.4	74.8	90	72.3	0	1	158	0.00	29.729 
15:25	75.8	75.8	75.8	89	72.3	0	3	270	0.00	29.729 
15:30	76.1	76.1	76.6	87	71.9	1	3	270	0.00	29.730 
15:35	76.5	76.5	77.4	86	72.0	0	2	270	0.00	29.730 
15:40	76.5	76.5	77.5	85	71.6	0	1	270	0.00	29.730 
15:45	76.3	76.3	77.2	84	71.1	0	2	270	0.00	29.731 
15:50	76.3	76.3	77.1	85	71.4	0	1	270	0.00	29.731 
15:55	76.3	76.3	77.1	85	71.4	0	2	22	0.00	29.731 
16:00	76.5	76.5	77.5	85	71.6	0	1	22	0.00	29.717 
16:05	76.7	76.7	77.9	84	71.5	0	2	202	0.00	29.717 
16:10	76.8	76.8	78.1	84	71.6	0	2	270	0.00	29.717 
16:15	77.0	77.0	78.5	83	71.4	1	3	292	0.00	29.712 
16:20	77.2	77.2	78.8	83	71.6	0	2	292	0.00	29.712 
16:25	77.6	77.6	79.6	82	71.7	0	3	270	0.00	29.712 
16:30	77.6	77.6	79.6	81	71.3	0	2	248	0.00	29.709 
16:35	77.4	77.4	79.2	81	71.1	0	2	248	0.00	29.709 
16:40	77.2	77.2	78.9	81	70.9	1	3	248	0.00	29.709 
16:45	77.2	77.2	78.9	82	71.3	0	2	248	0.00	29.706 
16:50	77.4	77.4	79.2	81	71.1	0	2	248	0.00	29.706 
16:55	77.2	77.2	78.9	80	70.5	1	3	270	0.00	29.706 
17:00	77.4	77.4	79.2	80	70.7	0	3	248	0.00	29.701 
17:05	77.4	77.4	79.2	80	70.7	1	3	248	0.00	29.701 
17:10	77.6	77.6	79.6	81	71.3	0	2	248	0.00	29.701 
17:15	77.4	77.4	79.3	79	70.4	1	3	248	0.00	29.698 
17:20	77.0	77.0	78.6	79	70.0	1	4	248	0.00	29.698 
17:25	76.8	76.8	78.2	80	70.1	1	2	338	0.00	29.698 
17:30	76.8	76.8	78.2	80	70.1	1	5	338	0.00	29.697 
17:35	76.8	76.8	78.2	80	70.1	0	2	225	0.00	29.697 
17:40	76.8	76.8	78.3	79	69.8	0	2	225	0.00	29.697 
17:45	76.8	76.8	78.2	80	70.1	0	1	225	0.00	29.695 
17:50	76.7	76.7	78.1	80	70.0	0	2	225	0.00	29.695 
17:55	76.7	76.7	78.1	79	69.7	1	3	225	0.00	29.695 
18:00	76.7	76.7	78.1	79	69.7	0	2	225	0.00	29.685 
18:05	76.7	76.7	78.1	79	69.7	0	3	270	0.00	29.685 
18:10	76.8	76.8	78.3	79	69.8	1	3	270	0.00	29.685 
18:15	77.2	77.2	78.9	78	69.8	1	2	270	0.00	29.680 
18:20	77.7	77.7	79.7	77	69.9	0	3	315	0.00	29.680 
18:25	78.1	78.1	80.4	77	70.3	0	2	270	0.00	29.680 
18:30	78.3	78.3	80.6	75	69.7	1	2	315	0.00	29.669 
18:35	78.1	78.1	80.4	76	69.9	1	4	248	0.00	29.669 
18:40	78.1	78.1	80.4	76	69.9	1	2	22	0.00	29.669 
18:45	78.1	78.1	80.4	76	69.9	1	3	270	0.00	29.663 
18:50	78.3	78.3	80.7	77	70.5	0	1	248	0.00	29.663 
18:55	78.3	78.3	80.7	76	70.1	0	3	248	0.00	29.663 
19:00	78.3	78.3	80.7	77	70.5	0	2	248	0.00	29.663 
19:05	78.3	78.3	80.7	77	70.5	0	3	248	0.00	29.663 
19:10	78.5	78.5	81.0	76	70.3	1	4	270	0.00	29.663 
19:15	78.5	78.5	81.0	76	70.3	1	3	270	0.00	29.658 
19:20	78.5	78.5	81.0	76	70.3	0	2	270	0.00	29.658 
19:25	78.5	78.5	81.0	76	70.3	0	2	270	0.00	29.658 
19:30	78.5	78.5	81.1	77	70.7	0	1	270	0.00	29.647 
19:35	78.5	78.5	81.0	76	70.3	0	2	270	0.00	29.647 
19:40	78.6	78.6	81.2	76	70.4	0	2	68	0.00	29.647 
19:45	78.5	78.5	81.0	76	70.3	0	3	338	0.00	29.633 
19:50	78.3	78.3	80.7	77	70.5	0	3	270	0.00	29.633 
19:55	78.1	78.1	80.4	77	70.3	0	0	---	0.00	29.633 
20:00	77.9	77.9	80.1	78	70.5	0	1	270	0.00	29.633 
20:05	77.7	77.7	79.7	78	70.3	0	2	270	0.00	29.633 
20:10	77.7	77.7	79.7	78	70.3	0	1	270	0.00	29.633 
20:15	77.7	77.7	79.7	78	70.3	0	1	270	0.00	29.623 
20:20	77.6	77.6	79.6	79	70.6	0	0	---	0.00	29.623 
20:25	77.6	77.6	79.6	79	70.6	0	1	270	0.00	29.623 
20:30	77.4	77.4	79.3	79	70.4	0	0	---	0.00	29.613 
20:35	77.2	77.2	78.9	79	70.2	0	0	---	0.00	29.613 
20:40	77.2	77.2	78.9	80	70.5	0	1	270	0.00	29.613 
20:45	77.0	77.0	78.6	80	70.3	0	0	---	0.00	29.612 
20:50	77.0	77.0	78.5	81	70.7	0	2	270	0.00	29.612 
20:55	76.8	76.8	78.2	81	70.5	0	1	270	0.00	29.612 
21:00	76.8	76.8	78.2	81	70.5	0	0	---	0.00	29.604 
21:05	76.7	76.7	78.0	81	70.4	0	1	270	0.00	29.604 
21:10	76.7	76.7	78.0	82	70.8	0	0	---	0.00	29.604 
21:15	76.7	76.7	78.0	82	70.8	0	0	---	0.00	29.599 
21:20	76.5	76.5	77.7	82	70.6	0	0	---	0.00	29.599 
21:25	76.5	76.5	77.6	83	70.9	0	2	270	0.00	29.599 
21:30	76.3	76.3	77.2	83	70.7	0	2	270	0.00	29.598 
21:35	76.3	76.3	77.2	83	70.7	0	3	270	0.00	29.598 
21:40	76.3	76.3	77.2	83	70.7	0	2	270	0.00	29.598 
21:45	76.3	76.3	77.2	83	70.7	1	5	270	0.00	29.585 
21:50	76.5	76.5	77.7	82	70.6	0	3	0	0.00	29.585 
21:55	76.3	76.3	77.2	83	70.7	0	2	248	0.00	29.585 
22:00	76.3	76.3	77.2	83	70.7	0	3	248	0.00	29.583 
22:05	76.3	76.3	77.2	83	70.7	0	3	270	0.00	29.583 
22:10	76.3	76.3	77.2	83	70.7	0	1	292	0.00	29.583 
22:15	76.3	76.3	77.2	83	70.7	0	2	270	0.00	29.578 
22:20	76.3	76.3	77.2	83	70.7	1	4	270	0.00	29.578 
22:25	76.5	76.5	77.6	83	70.9	1	5	270	0.00	29.578 
22:30	76.5	76.5	77.7	82	70.6	0	3	270	0.00	29.567 
22:35	76.7	76.7	78.0	82	70.8	0	3	270	0.00	29.567 
22:40	76.7	76.7	78.0	82	70.8	1	3	270	0.00	29.567 
22:45	76.7	76.7	78.0	82	70.8	0	3	248	0.00	29.567 
22:50	76.7	76.7	78.0	81	70.4	1	4	248	0.00	29.567 
22:55	76.8	76.8	78.2	81	70.5	1	5	292	0.00	29.567 
23:00	76.8	76.8	78.2	81	70.5	1	4	225	0.00	29.550 
23:05	76.8	76.8	78.2	81	70.5	1	3	248	0.00	29.550 
23:10	76.8	76.8	78.2	81	70.5	1	3	248	0.00	29.550 
23:15	76.8	76.8	78.2	80	70.1	1	5	270	0.00	29.535 
23:20	76.8	76.8	78.2	80	70.1	2	7	315	0.00	29.535 
23:25	76.8	76.8	78.3	79	69.8	2	5	270	0.00	29.535 
23:30	77.0	77.0	78.6	78	69.6	2	4	270	0.00	29.522 
23:35	77.0	77.0	78.6	78	69.6	2	5	270	0.00	29.522 
23:40	77.2	77.2	79.0	77	69.4	3	7	248	0.00	29.522 
23:45	77.4	77.4	79.3	76	69.2	3	7	270	0.00	29.493 
23:50	77.4	77.4	79.3	75	68.8	3	9	292	0.00	29.493 
23:55	77.4	77.4	79.3	75	68.8	2	5	292	0.00	29.493 

CoCoRaHS
IN-AL-39
A2 Web Hosting
Creative Commons License
GoDaddy
search engine by freefind advanced

loaded 2018-11-13 22:29:38 • last modified 2010-11-18 10:43:29
Privacy PolicyDisclaimer
• wx.awcolley.com is powered by PmWiki v.2002016 •
• all content (unless otherwise noted) © 2018 A W Colley